Portada
METAR-TAF:

METAR-TAF

Aeropuertos :

Flora Municipal Airport

Flora, Illinois, Estados Unidos

latitud: 38-39-54N, longitud: 088-27-11W, altitud: 144 m

Observación

El informe se hizo hace 44 minutos, a las 20:35 UTC
Viento 7 kt del sur
Temperatura 33°C
Humedad 44%
Presión 1023 hPa
Visibilidad: 16.1 km
Cielo despejado

METAR: KFOA 192035Z AUTO 19007KT 10SM CLR 33/19 A3020 RMK AO2

Hora: 16:19 (21:19 UTC)


TAF: falta

Observaciones y pronósticos meteorológicos de más de 4000 aeropuertos (mensajes METAR y TAF).

Los puntos amarillos y rojos representan las estaciones disponibles.

Ponga el ratón en el punto deseado para ver el nombre de la estación.

Haga clic para ver las observaciones y los pronósticos meteorológicos.

Para cambiar el mapa : haga clic en los botones verdes con una cruz de color negro para hacer un zoom, en el botón verde con un guión para alejar o en las flechas verdes para mapas adyacentes.


METAR-TAF: